Terminal Aerodrome Forecast
Issued by NWS

Home | Current Version | Previous Version | Text Only | Print | Product List | Glossary On
Versions: 1 2 3 4 5 6 7 8 9 10 11 12 13 14
620
FTUS42 KMLB 231121
TAFSFB
TAF
KSFB 231121Z 2312/2412 08006KT P6SM SCT025 BKN250
     FM231400 06008KT P6SM VCSH SCT030 SCT150 BKN250
     FM231800 07012G18KT P6SM VCTS SCT030CB BKN050 BKN250
     FM240000 05009KT P6SM VCSH SCT030 BKN050 BKN250
     FM240600 02005KT P6SM SCT025 BKN060=

USA.gov is the U.S. government's official web portal to all federal, state and local government web resources and services.